sensor_id;sensor_type;location;lat;lon;timestamp;temperature;humidity
7399;DHT22;3740;50.700;7.184;2024-02-26T00:02:17;9.10;99.90
7399;DHT22;3740;50.700;7.184;2024-02-26T00:04:43;8.90;99.90
7399;DHT22;3740;50.700;7.184;2024-02-26T00:07:09;8.70;99.90
7399;DHT22;3740;50.700;7.184;2024-02-26T00:09:34;8.60;99.90
7399;DHT22;3740;50.700;7.184;2024-02-26T00:12:05;8.70;99.90
7399;DHT22;3740;50.700;7.184;2024-02-26T00:14:31;8.80;99.90
7399;DHT22;3740;50.700;7.184;2024-02-26T00:16:56;8.90;99.90
7399;DHT22;3740;50.700;7.184;2024-02-26T00:19:22;8.90;99.90
7399;DHT22;3740;50.700;7.184;2024-02-26T00:21:47;8.90;99.90
7399;DHT22;3740;50.700;7.184;2024-02-26T00:24:13;8.90;99.90
7399;DHT22;3740;50.700;7.184;2024-02-26T00:26:39;8.90;99.90
7399;DHT22;3740;50.700;7.184;2024-02-26T00:29:05;8.80;99.90
7399;DHT22;3740;50.700;7.184;2024-02-26T00:31:30;8.70;99.90
7399;DHT22;3740;50.700;7.184;2024-02-26T00:33:56;8.70;99.90
7399;DHT22;3740;50.700;7.184;2024-02-26T00:36:22;8.70;99.90
7399;DHT22;3740;50.700;7.184;2024-02-26T00:38:47;8.70;99.90
7399;DHT22;3740;50.700;7.184;2024-02-26T00:41:17;8.70;99.90
7399;DHT22;3740;50.700;7.184;2024-02-26T00:43:42;8.70;99.90
7399;DHT22;3740;50.700;7.184;2024-02-26T00:46:08;8.70;99.90
7399;DHT22;3740;50.700;7.184;2024-02-26T00:48:34;8.70;99.90
7399;DHT22;3740;50.700;7.184;2024-02-26T00:50:59;8.60;99.90
7399;DHT22;3740;50.700;7.184;2024-02-26T00:53:25;8.60;99.90
7399;DHT22;3740;50.700;7.184;2024-02-26T00:55:51;8.60;99.90
7399;DHT22;3740;50.700;7.184;2024-02-26T00:58:16;8.50;99.90
7399;DHT22;3740;50.700;7.184;2024-02-26T01:00:42;8.50;99.90
7399;DHT22;3740;50.700;7.184;2024-02-26T01:03:07;8.50;99.90
7399;DHT22;3740;50.700;7.184;2024-02-26T01:05:33;8.60;99.90
7399;DHT22;3740;50.700;7.184;2024-02-26T01:07:59;8.50;99.90
7399;DHT22;3740;50.700;7.184;2024-02-26T01:10:24;8.50;99.90
7399;DHT22;3740;50.700;7.184;2024-02-26T01:12:50;8.50;99.90
7399;DHT22;3740;50.700;7.184;2024-02-26T01:15:15;8.70;99.90
7399;DHT22;3740;50.700;7.184;2024-02-26T01:17:41;8.80;99.90
7399;DHT22;3740;50.700;7.184;2024-02-26T01:20:07;9.00;99.90
7399;DHT22;3740;50.700;7.184;2024-02-26T01:22:34;9.00;99.90
7399;DHT22;3740;50.700;7.184;2024-02-26T01:24:59;9.00;99.90
7399;DHT22;3740;50.700;7.184;2024-02-26T01:27:25;8.80;99.90
7399;DHT22;3740;50.700;7.184;2024-02-26T01:29:52;8.90;99.90
7399;DHT22;3740;50.700;7.184;2024-02-26T01:32:18;8.80;99.90
7399;DHT22;3740;50.700;7.184;2024-02-26T01:34:45;8.70;99.90
7399;DHT22;3740;50.700;7.184;2024-02-26T01:37:10;8.70;99.90
7399;DHT22;3740;50.700;7.184;2024-02-26T01:39:36;8.60;99.90
7399;DHT22;3740;50.700;7.184;2024-02-26T01:42:02;8.60;99.90
7399;DHT22;3740;50.700;7.184;2024-02-26T01:44:27;8.60;99.90
7399;DHT22;3740;50.700;7.184;2024-02-26T01:46:53;8.80;99.90
7399;DHT22;3740;50.700;7.184;2024-02-26T01:49:19;8.90;99.90
7399;DHT22;3740;50.700;7.184;2024-02-26T01:51:45;9.10;99.90
7399;DHT22;3740;50.700;7.184;2024-02-26T01:54:11;9.10;99.90
7399;DHT22;3740;50.700;7.184;2024-02-26T01:56:38;8.90;99.90
7399;DHT22;3740;50.700;7.184;2024-02-26T01:59:05;8.70;99.90
7399;DHT22;3740;50.700;7.184;2024-02-26T02:01:32;8.60;99.90
7399;DHT22;3740;50.700;7.184;2024-02-26T02:04:00;8.60;99.90
7399;DHT22;3740;50.700;7.184;2024-02-26T02:06:27;8.50;99.90
7399;DHT22;3740;50.700;7.184;2024-02-26T02:08:54;8.50;99.90
7399;DHT22;3740;50.700;7.184;2024-02-26T02:11:20;8.60;99.90
7399;DHT22;3740;50.700;7.184;2024-02-26T02:13:45;8.70;99.90
7399;DHT22;3740;50.700;7.184;2024-02-26T02:16:12;8.70;99.90
7399;DHT22;3740;50.700;7.184;2024-02-26T02:18:37;8.80;99.90
7399;DHT22;3740;50.700;7.184;2024-02-26T02:21:03;8.70;99.90
7399;DHT22;3740;50.700;7.184;2024-02-26T02:23:29;8.60;99.90
7399;DHT22;3740;50.700;7.184;2024-02-26T02:25:56;8.70;99.90
7399;DHT22;3740;50.700;7.184;2024-02-26T02:28:23;8.50;99.90
7399;DHT22;3740;50.700;7.184;2024-02-26T02:30:50;8.50;99.90
7399;DHT22;3740;50.700;7.184;2024-02-26T02:33:16;8.40;99.90
7399;DHT22;3740;50.700;7.184;2024-02-26T02:35:42;8.30;99.90
7399;DHT22;3740;50.700;7.184;2024-02-26T02:38:08;8.30;99.90
7399;DHT22;3740;50.700;7.184;2024-02-26T02:40:33;8.40;99.90
7399;DHT22;3740;50.700;7.184;2024-02-26T02:42:59;8.40;99.90
7399;DHT22;3740;50.700;7.184;2024-02-26T02:45:25;8.60;99.90
7399;DHT22;3740;50.700;7.184;2024-02-26T02:47:51;8.70;99.90
7399;DHT22;3740;50.700;7.184;2024-02-26T02:50:17;8.70;99.90
7399;DHT22;3740;50.700;7.184;2024-02-26T02:52:42;8.60;99.90
7399;DHT22;3740;50.700;7.184;2024-02-26T02:55:08;8.40;99.90
7399;DHT22;3740;50.700;7.184;2024-02-26T02:57:33;8.50;99.90
7399;DHT22;3740;50.700;7.184;2024-02-26T02:59:59;8.30;99.90
7399;DHT22;3740;50.700;7.184;2024-02-26T03:02:24;8.30;99.90
7399;DHT22;3740;50.700;7.184;2024-02-26T03:04:50;8.30;99.90
7399;DHT22;3740;50.700;7.184;2024-02-26T03:07:16;8.20;99.90
7399;DHT22;3740;50.700;7.184;2024-02-26T03:09:41;8.20;99.90
7399;DHT22;3740;50.700;7.184;2024-02-26T03:12:07;8.30;99.90
7399;DHT22;3740;50.700;7.184;2024-02-26T03:14:33;8.30;99.90
7399;DHT22;3740;50.700;7.184;2024-02-26T03:16:58;8.40;99.90
7399;DHT22;3740;50.700;7.184;2024-02-26T03:19:24;8.40;99.90
7399;DHT22;3740;50.700;7.184;2024-02-26T03:21:49;8.40;99.90
7399;DHT22;3740;50.700;7.184;2024-02-26T03:24:15;8.40;99.90
7399;DHT22;3740;50.700;7.184;2024-02-26T03:26:40;8.40;99.90
7399;DHT22;3740;50.700;7.184;2024-02-26T03:29:06;8.40;99.90
7399;DHT22;3740;50.700;7.184;2024-02-26T03:31:31;8.40;99.90
7399;DHT22;3740;50.700;7.184;2024-02-26T03:33:57;8.30;99.90
7399;DHT22;3740;50.700;7.184;2024-02-26T03:36:23;8.20;99.90
7399;DHT22;3740;50.700;7.184;2024-02-26T03:38:48;8.40;99.90
7399;DHT22;3740;50.700;7.184;2024-02-26T03:41:14;8.60;99.90
7399;DHT22;3740;50.700;7.184;2024-02-26T03:43:40;8.70;99.90
7399;DHT22;3740;50.700;7.184;2024-02-26T03:46:09;8.80;99.90
7399;DHT22;3740;50.700;7.184;2024-02-26T03:48:36;8.60;99.90
7399;DHT22;3740;50.700;7.184;2024-02-26T03:51:02;8.50;99.90
7399;DHT22;3740;50.700;7.184;2024-02-26T03:53:27;8.50;99.90
7399;DHT22;3740;50.700;7.184;2024-02-26T03:55:53;8.50;99.90
7399;DHT22;3740;50.700;7.184;2024-02-26T03:58:20;8.50;99.90
7399;DHT22;3740;50.700;7.184;2024-02-26T04:00:46;8.60;99.90
7399;DHT22;3740;50.700;7.184;2024-02-26T04:03:15;8.70;99.90
7399;DHT22;3740;50.700;7.184;2024-02-26T04:05:41;8.80;99.90
7399;DHT22;3740;50.700;7.184;2024-02-26T04:08:06;8.80;99.90
7399;DHT22;3740;50.700;7.184;2024-02-26T04:10:33;8.70;99.90
7399;DHT22;3740;50.700;7.184;2024-02-26T04:13:00;8.70;99.90
7399;DHT22;3740;50.700;7.184;2024-02-26T04:15:26;8.70;99.90
7399;DHT22;3740;50.700;7.184;2024-02-26T04:17:51;8.60;99.90
7399;DHT22;3740;50.700;7.184;2024-02-26T04:20:17;8.60;99.90
7399;DHT22;3740;50.700;7.184;2024-02-26T04:22:43;8.80;99.90
7399;DHT22;3740;50.700;7.184;2024-02-26T04:25:09;8.90;99.90
7399;DHT22;3740;50.700;7.184;2024-02-26T04:27:34;8.90;99.90
7399;DHT22;3740;50.700;7.184;2024-02-26T04:30:00;8.80;99.90
7399;DHT22;3740;50.700;7.184;2024-02-26T04:32:25;8.60;99.90
7399;DHT22;3740;50.700;7.184;2024-02-26T04:34:51;8.50;99.90
7399;DHT22;3740;50.700;7.184;2024-02-26T04:37:16;8.30;99.90
7399;DHT22;3740;50.700;7.184;2024-02-26T04:39:42;8.20;99.90
7399;DHT22;3740;50.700;7.184;2024-02-26T04:42:08;8.20;99.90
7399;DHT22;3740;50.700;7.184;2024-02-26T04:44:33;8.30;99.90
7399;DHT22;3740;50.700;7.184;2024-02-26T04:46:59;8.40;99.90
7399;DHT22;3740;50.700;7.184;2024-02-26T04:49:26;8.50;99.90
7399;DHT22;3740;50.700;7.184;2024-02-26T04:51:52;8.60;99.90
7399;DHT22;3740;50.700;7.184;2024-02-26T04:54:19;8.60;99.90
7399;DHT22;3740;50.700;7.184;2024-02-26T04:56:44;8.50;99.90
7399;DHT22;3740;50.700;7.184;2024-02-26T04:59:10;8.30;99.90
7399;DHT22;3740;50.700;7.184;2024-02-26T05:01:36;8.20;99.90
7399;DHT22;3740;50.700;7.184;2024-02-26T05:04:02;8.20;99.90
7399;DHT22;3740;50.700;7.184;2024-02-26T05:06:28;8.10;99.90
7399;DHT22;3740;50.700;7.184;2024-02-26T05:08:54;8.00;99.90
7399;DHT22;3740;50.700;7.184;2024-02-26T05:11:19;7.90;99.90
7399;DHT22;3740;50.700;7.184;2024-02-26T05:13:45;7.70;99.90
7399;DHT22;3740;50.700;7.184;2024-02-26T05:16:11;7.70;99.90
7399;DHT22;3740;50.700;7.184;2024-02-26T05:18:36;7.70;99.90
7399;DHT22;3740;50.700;7.184;2024-02-26T05:21:02;7.60;99.90
7399;DHT22;3740;50.700;7.184;2024-02-26T05:23:28;7.60;99.90
7399;DHT22;3740;50.700;7.184;2024-02-26T05:25:54;7.50;99.90
7399;DHT22;3740;50.700;7.184;2024-02-26T05:28:20;7.50;99.90
7399;DHT22;3740;50.700;7.184;2024-02-26T05:30:46;7.60;99.90
7399;DHT22;3740;50.700;7.184;2024-02-26T05:33:11;7.80;99.90
7399;DHT22;3740;50.700;7.184;2024-02-26T05:35:37;7.90;99.90
7399;DHT22;3740;50.700;7.184;2024-02-26T05:38:03;8.00;99.90
7399;DHT22;3740;50.700;7.184;2024-02-26T05:40:29;8.00;99.90
7399;DHT22;3740;50.700;7.184;2024-02-26T05:42:55;7.90;99.90
7399;DHT22;3740;50.700;7.184;2024-02-26T05:45:21;7.70;99.90
7399;DHT22;3740;50.700;7.184;2024-02-26T05:47:47;7.60;99.90
7399;DHT22;3740;50.700;7.184;2024-02-26T05:50:13;7.60;99.90
7399;DHT22;3740;50.700;7.184;2024-02-26T05:52:39;7.60;99.90
7399;DHT22;3740;50.700;7.184;2024-02-26T05:55:05;7.60;99.90
7399;DHT22;3740;50.700;7.184;2024-02-26T05:57:32;7.80;99.90
7399;DHT22;3740;50.700;7.184;2024-02-26T05:59:57;7.90;99.90
7399;DHT22;3740;50.700;7.184;2024-02-26T06:02:26;8.00;99.90
7399;DHT22;3740;50.700;7.184;2024-02-26T06:04:51;8.10;99.90
7399;DHT22;3740;50.700;7.184;2024-02-26T06:07:17;8.10;99.90
7399;DHT22;3740;50.700;7.184;2024-02-26T06:09:42;7.90;99.90
7399;DHT22;3740;50.700;7.184;2024-02-26T06:12:08;7.80;99.90
7399;DHT22;3740;50.700;7.184;2024-02-26T06:14:34;7.60;99.90
7399;DHT22;3740;50.700;7.184;2024-02-26T06:16:59;7.50;99.90
7399;DHT22;3740;50.700;7.184;2024-02-26T06:19:25;7.50;99.90
7399;DHT22;3740;50.700;7.184;2024-02-26T06:21:50;7.50;99.90
7399;DHT22;3740;50.700;7.184;2024-02-26T06:24:16;7.70;99.90
7399;DHT22;3740;50.700;7.184;2024-02-26T06:26:42;7.70;99.90
7399;DHT22;3740;50.700;7.184;2024-02-26T06:29:07;7.80;99.90
7399;DHT22;3740;50.700;7.184;2024-02-26T06:31:33;7.80;99.90
7399;DHT22;3740;50.700;7.184;2024-02-26T06:33:58;7.70;99.90
7399;DHT22;3740;50.700;7.184;2024-02-26T06:36:24;7.70;99.90
7399;DHT22;3740;50.700;7.184;2024-02-26T06:38:49;7.60;99.90
7399;DHT22;3740;50.700;7.184;2024-02-26T06:41:15;7.50;99.90
7399;DHT22;3740;50.700;7.184;2024-02-26T06:43:40;7.40;99.90
7399;DHT22;3740;50.700;7.184;2024-02-26T06:46:06;7.40;99.90
7399;DHT22;3740;50.700;7.184;2024-02-26T06:48:32;7.30;99.90
7399;DHT22;3740;50.700;7.184;2024-02-26T06:50:58;7.40;99.90
7399;DHT22;3740;50.700;7.184;2024-02-26T06:53:23;7.30;99.90
7399;DHT22;3740;50.700;7.184;2024-02-26T06:55:49;7.20;99.90
7399;DHT22;3740;50.700;7.184;2024-02-26T06:58:15;7.20;99.90
7399;DHT22;3740;50.700;7.184;2024-02-26T07:00:41;7.20;99.90
7399;DHT22;3740;50.700;7.184;2024-02-26T07:03:06;7.30;99.90
7399;DHT22;3740;50.700;7.184;2024-02-26T07:05:32;7.20;99.90
7399;DHT22;3740;50.700;7.184;2024-02-26T07:07:57;7.20;99.90
7399;DHT22;3740;50.700;7.184;2024-02-26T07:10:23;7.20;99.90
7399;DHT22;3740;50.700;7.184;2024-02-26T07:12:48;7.20;99.90
7399;DHT22;3740;50.700;7.184;2024-02-26T07:15:14;7.30;99.90
7399;DHT22;3740;50.700;7.184;2024-02-26T07:17:40;7.20;99.90
7399;DHT22;3740;50.700;7.184;2024-02-26T07:20:08;7.20;99.90
7399;DHT22;3740;50.700;7.184;2024-02-26T07:22:34;7.20;99.90
7399;DHT22;3740;50.700;7.184;2024-02-26T07:24:59;7.20;99.90
7399;DHT22;3740;50.700;7.184;2024-02-26T07:27:25;7.20;99.90
7399;DHT22;3740;50.700;7.184;2024-02-26T07:29:50;7.20;99.90
7399;DHT22;3740;50.700;7.184;2024-02-26T07:32:16;7.20;99.90
7399;DHT22;3740;50.700;7.184;2024-02-26T07:34:42;7.20;99.90
7399;DHT22;3740;50.700;7.184;2024-02-26T07:37:10;7.20;99.90
7399;DHT22;3740;50.700;7.184;2024-02-26T07:39:35;7.20;99.90
7399;DHT22;3740;50.700;7.184;2024-02-26T07:42:02;7.20;99.90
7399;DHT22;3740;50.700;7.184;2024-02-26T07:44:28;7.10;99.90
7399;DHT22;3740;50.700;7.184;2024-02-26T07:46:53;7.10;99.90
7399;DHT22;3740;50.700;7.184;2024-02-26T07:49:19;7.20;99.90
7399;DHT22;3740;50.700;7.184;2024-02-26T07:51:44;7.20;99.90
7399;DHT22;3740;50.700;7.184;2024-02-26T07:54:10;7.30;99.90
7399;DHT22;3740;50.700;7.184;2024-02-26T07:56:35;7.20;99.90
7399;DHT22;3740;50.700;7.184;2024-02-26T07:59:01;7.30;99.90
7399;DHT22;3740;50.700;7.184;2024-02-26T08:01:27;7.50;99.90
7399;DHT22;3740;50.700;7.184;2024-02-26T08:03:55;7.70;99.90
7399;DHT22;3740;50.700;7.184;2024-02-26T08:06:21;7.70;99.90
7399;DHT22;3740;50.700;7.184;2024-02-26T08:08:47;7.70;99.90
7399;DHT22;3740;50.700;7.184;2024-02-26T08:11:14;7.70;99.90
7399;DHT22;3740;50.700;7.184;2024-02-26T08:13:40;7.70;99.90
7399;DHT22;3740;50.700;7.184;2024-02-26T08:16:06;7.80;99.90
7399;DHT22;3740;50.700;7.184;2024-02-26T08:18:31;7.90;99.90
7399;DHT22;3740;50.700;7.184;2024-02-26T08:20:57;8.00;99.90
7399;DHT22;3740;50.700;7.184;2024-02-26T08:23:23;8.00;99.90
7399;DHT22;3740;50.700;7.184;2024-02-26T08:25:49;7.80;99.90
7399;DHT22;3740;50.700;7.184;2024-02-26T08:28:14;7.70;99.90
7399;DHT22;3740;50.700;7.184;2024-02-26T08:30:43;7.70;99.90
7399;DHT22;3740;50.700;7.184;2024-02-26T08:33:08;7.80;99.90
7399;DHT22;3740;50.700;7.184;2024-02-26T08:35:35;7.90;99.90
7399;DHT22;3740;50.700;7.184;2024-02-26T08:38:01;8.00;99.90
7399;DHT22;3740;50.700;7.184;2024-02-26T08:40:26;8.00;99.90
7399;DHT22;3740;50.700;7.184;2024-02-26T08:42:52;7.90;99.90
7399;DHT22;3740;50.700;7.184;2024-02-26T08:45:17;7.80;99.90
7399;DHT22;3740;50.700;7.184;2024-02-26T08:47:45;7.70;99.90
7399;DHT22;3740;50.700;7.184;2024-02-26T08:50:10;7.70;99.90
7399;DHT22;3740;50.700;7.184;2024-02-26T08:52:37;7.80;99.90
7399;DHT22;3740;50.700;7.184;2024-02-26T08:55:03;7.90;99.90
7399;DHT22;3740;50.700;7.184;2024-02-26T08:57:31;7.90;99.90
7399;DHT22;3740;50.700;7.184;2024-02-26T08:59:58;8.00;99.90
7399;DHT22;3740;50.700;7.184;2024-02-26T09:02:23;7.90;99.90
7399;DHT22;3740;50.700;7.184;2024-02-26T09:04:49;7.80;99.90
7399;DHT22;3740;50.700;7.184;2024-02-26T09:07:18;7.70;99.90
7399;DHT22;3740;50.700;7.184;2024-02-26T09:09:44;7.70;99.90
7399;DHT22;3740;50.700;7.184;2024-02-26T09:12:09;8.50;99.90
7399;DHT22;3740;50.700;7.184;2024-02-26T09:14:35;7.70;99.90
7399;DHT22;3740;50.700;7.184;2024-02-26T09:17:01;7.80;99.90
7399;DHT22;3740;50.700;7.184;2024-02-26T09:19:26;7.90;99.90
7399;DHT22;3740;50.700;7.184;2024-02-26T09:21:53;7.90;99.90
7399;DHT22;3740;50.700;7.184;2024-02-26T09:24:23;8.00;99.90
7399;DHT22;3740;50.700;7.184;2024-02-26T09:26:48;7.90;99.90
7399;DHT22;3740;50.700;7.184;2024-02-26T09:29:14;7.80;99.90
7399;DHT22;3740;50.700;7.184;2024-02-26T09:31:40;7.70;99.90
7399;DHT22;3740;50.700;7.184;2024-02-26T09:34:07;7.70;99.90
7399;DHT22;3740;50.700;7.184;2024-02-26T09:36:35;7.70;99.90
7399;DHT22;3740;50.700;7.184;2024-02-26T09:39:01;7.70;99.90
7399;DHT22;3740;50.700;7.184;2024-02-26T09:41:28;7.70;99.90
7399;DHT22;3740;50.700;7.184;2024-02-26T09:43:57;7.70;99.90
7399;DHT22;3740;50.700;7.184;2024-02-26T09:46:25;7.70;99.90
7399;DHT22;3740;50.700;7.184;2024-02-26T09:48:51;7.80;99.90
7399;DHT22;3740;50.700;7.184;2024-02-26T09:51:17;7.80;99.90
7399;DHT22;3740;50.700;7.184;2024-02-26T09:53:44;7.80;99.90
7399;DHT22;3740;50.700;7.184;2024-02-26T09:56:12;7.90;99.90
7399;DHT22;3740;50.700;7.184;2024-02-26T09:58:41;7.90;99.90
7399;DHT22;3740;50.700;7.184;2024-02-26T10:01:11;7.90;99.90
7399;DHT22;3740;50.700;7.184;2024-02-26T10:03:43;7.90;99.90
7399;DHT22;3740;50.700;7.184;2024-02-26T10:06:10;8.10;99.90
7399;DHT22;3740;50.700;7.184;2024-02-26T10:08:36;8.30;99.90
7399;DHT22;3740;50.700;7.184;2024-02-26T10:11:04;8.50;99.90
7399;DHT22;3740;50.700;7.184;2024-02-26T10:13:30;8.60;99.90
7399;DHT22;3740;50.700;7.184;2024-02-26T10:15:55;8.70;99.90
7399;DHT22;3740;50.700;7.184;2024-02-26T10:18:23;8.70;99.90
7399;DHT22;3740;50.700;7.184;2024-02-26T10:21:02;8.80;99.90
7399;DHT22;3740;50.700;7.184;2024-02-26T10:23:27;8.80;99.90
7399;DHT22;3740;50.700;7.184;2024-02-26T10:25:56;8.90;99.90
7399;DHT22;3740;50.700;7.184;2024-02-26T10:28:22;8.90;99.90
7399;DHT22;3740;50.700;7.184;2024-02-26T10:30:48;9.30;99.90
7399;DHT22;3740;50.700;7.184;2024-02-26T10:33:13;9.40;99.90
7399;DHT22;3740;50.700;7.184;2024-02-26T10:35:40;9.40;99.90
7399;DHT22;3740;50.700;7.184;2024-02-26T10:38:07;9.50;99.90
7399;DHT22;3740;50.700;7.184;2024-02-26T10:40:33;9.50;99.90
7399;DHT22;3740;50.700;7.184;2024-02-26T10:42:58;9.40;99.90
7399;DHT22;3740;50.700;7.184;2024-02-26T10:45:24;9.50;99.90
7399;DHT22;3740;50.700;7.184;2024-02-26T10:47:50;9.40;99.90
7399;DHT22;3740;50.700;7.184;2024-02-26T10:50:16;9.50;99.90
7399;DHT22;3740;50.700;7.184;2024-02-26T10:52:42;9.60;99.90
7399;DHT22;3740;50.700;7.184;2024-02-26T10:55:15;9.60;99.90
7399;DHT22;3740;50.700;7.184;2024-02-26T10:57:41;9.70;99.90
7399;DHT22;3740;50.700;7.184;2024-02-26T11:00:13;9.80;99.90
7399;DHT22;3740;50.700;7.184;2024-02-26T11:02:40;9.90;99.90
7399;DHT22;3740;50.700;7.184;2024-02-26T11:05:07;9.90;99.90
7399;DHT22;3740;50.700;7.184;2024-02-26T11:07:34;10.00;99.90
7399;DHT22;3740;50.700;7.184;2024-02-26T11:10:03;10.00;99.90
7399;DHT22;3740;50.700;7.184;2024-02-26T11:12:31;10.10;99.90
7399;DHT22;3740;50.700;7.184;2024-02-26T11:14:58;10.10;99.90
7399;DHT22;3740;50.700;7.184;2024-02-26T11:17:28;9.90;99.90
7399;DHT22;3740;50.700;7.184;2024-02-26T11:19:58;9.90;99.90
7399;DHT22;3740;50.700;7.184;2024-02-26T11:22:25;9.90;99.90
7399;DHT22;3740;50.700;7.184;2024-02-26T11:24:55;9.80;99.90
7399;DHT22;3740;50.700;7.184;2024-02-26T11:27:25;9.80;99.90
7399;DHT22;3740;50.700;7.184;2024-02-26T11:29:55;9.80;99.90
7399;DHT22;3740;50.700;7.184;2024-02-26T11:32:23;9.70;99.90
7399;DHT22;3740;50.700;7.184;2024-02-26T11:34:49;9.60;99.90
7399;DHT22;3740;50.700;7.184;2024-02-26T11:37:16;9.40;99.90
7399;DHT22;3740;50.700;7.184;2024-02-26T11:39:42;9.50;99.90
7399;DHT22;3740;50.700;7.184;2024-02-26T11:42:12;9.40;99.90
7399;DHT22;3740;50.700;7.184;2024-02-26T11:44:39;9.30;99.90
7399;DHT22;3740;50.700;7.184;2024-02-26T11:47:22;9.30;99.90
7399;DHT22;3740;50.700;7.184;2024-02-26T11:49:48;9.30;99.90
7399;DHT22;3740;50.700;7.184;2024-02-26T11:52:15;9.40;99.90
7399;DHT22;3740;50.700;7.184;2024-02-26T11:54:50;9.40;99.90
7399;DHT22;3740;50.700;7.184;2024-02-26T11:57:37;9.30;99.90
7399;DHT22;3740;50.700;7.184;2024-02-26T12:05:17;9.70;99.90
7399;DHT22;3740;50.700;7.184;2024-02-26T12:07:49;9.90;99.90
7399;DHT22;3740;50.700;7.184;2024-02-26T12:10:22;10.20;99.90
7399;DHT22;3740;50.700;7.184;2024-02-26T12:12:53;10.10;99.90
7399;DHT22;3740;50.700;7.184;2024-02-26T12:15:19;10.10;99.90
7399;DHT22;3740;50.700;7.184;2024-02-26T12:17:48;10.00;99.90
7399;DHT22;3740;50.700;7.184;2024-02-26T12:20:16;9.90;99.90
7399;DHT22;3740;50.700;7.184;2024-02-26T12:22:45;9.80;99.90
7399;DHT22;3740;50.700;7.184;2024-02-26T12:25:13;10.00;99.90
7399;DHT22;3740;50.700;7.184;2024-02-26T12:27:38;10.20;99.90
7399;DHT22;3740;50.700;7.184;2024-02-26T12:30:04;10.30;99.90
7399;DHT22;3740;50.700;7.184;2024-02-26T12:32:32;10.30;99.90
7399;DHT22;3740;50.700;7.184;2024-02-26T12:34:58;10.30;99.90
7399;DHT22;3740;50.700;7.184;2024-02-26T12:37:27;10.10;99.90
7399;DHT22;3740;50.700;7.184;2024-02-26T12:39:52;10.00;99.90
7399;DHT22;3740;50.700;7.184;2024-02-26T12:42:18;9.90;99.90
7399;DHT22;3740;50.700;7.184;2024-02-26T12:44:46;9.70;99.90
7399;DHT22;3740;50.700;7.184;2024-02-26T12:47:11;9.60;99.90
7399;DHT22;3740;50.700;7.184;2024-02-26T12:49:42;9.70;99.90
7399;DHT22;3740;50.700;7.184;2024-02-26T12:52:08;9.90;99.90
7399;DHT22;3740;50.700;7.184;2024-02-26T12:54:34;10.10;99.90
7399;DHT22;3740;50.700;7.184;2024-02-26T12:57:01;10.10;99.90
7399;DHT22;3740;50.700;7.184;2024-02-26T12:59:29;9.90;99.90
7399;DHT22;3740;50.700;7.184;2024-02-26T13:01:55;9.70;99.90
7399;DHT22;3740;50.700;7.184;2024-02-26T13:04:21;9.70;99.90
7399;DHT22;3740;50.700;7.184;2024-02-26T13:06:47;9.50;99.90
7399;DHT22;3740;50.700;7.184;2024-02-26T13:09:15;9.40;99.90
7399;DHT22;3740;50.700;7.184;2024-02-26T13:11:42;9.30;99.90
7399;DHT22;3740;50.700;7.184;2024-02-26T13:14:19;9.30;99.90
7399;DHT22;3740;50.700;7.184;2024-02-26T13:16:53;9.50;99.90
7399;DHT22;3740;50.700;7.184;2024-02-26T13:19:19;9.60;99.90
7399;DHT22;3740;50.700;7.184;2024-02-26T13:21:45;9.70;99.90
7399;DHT22;3740;50.700;7.184;2024-02-26T13:24:13;9.70;99.90
7399;DHT22;3740;50.700;7.184;2024-02-26T13:26:39;9.70;99.90
7399;DHT22;3740;50.700;7.184;2024-02-26T13:29:05;9.60;99.90
7399;DHT22;3740;50.700;7.184;2024-02-26T13:31:30;9.60;99.90
7399;DHT22;3740;50.700;7.184;2024-02-26T13:33:56;9.60;99.90
7399;DHT22;3740;50.700;7.184;2024-02-26T13:36:22;9.60;99.90
7399;DHT22;3740;50.700;7.184;2024-02-26T13:38:55;9.60;99.90
7399;DHT22;3740;50.700;7.184;2024-02-26T13:41:21;9.70;99.90
7399;DHT22;3740;50.700;7.184;2024-02-26T13:43:47;9.70;99.90
7399;DHT22;3740;50.700;7.184;2024-02-26T13:46:13;9.80;99.90
7399;DHT22;3740;50.700;7.184;2024-02-26T13:48:40;9.80;99.90
7399;DHT22;3740;50.700;7.184;2024-02-26T13:51:06;9.90;99.90
7399;DHT22;3740;50.700;7.184;2024-02-26T13:53:32;9.90;99.90
7399;DHT22;3740;50.700;7.184;2024-02-26T13:55:57;10.00;99.90
7399;DHT22;3740;50.700;7.184;2024-02-26T13:58:26;10.10;99.90
7399;DHT22;3740;50.700;7.184;2024-02-26T14:00:52;10.10;99.90
7399;DHT22;3740;50.700;7.184;2024-02-26T14:03:21;10.10;99.90
7399;DHT22;3740;50.700;7.184;2024-02-26T14:05:47;10.10;99.90
7399;DHT22;3740;50.700;7.184;2024-02-26T14:08:13;10.00;99.90
7399;DHT22;3740;50.700;7.184;2024-02-26T14:10:39;9.80;99.90
7399;DHT22;3740;50.700;7.184;2024-02-26T14:13:05;9.80;99.90
7399;DHT22;3740;50.700;7.184;2024-02-26T14:15:31;9.70;99.90
7399;DHT22;3740;50.700;7.184;2024-02-26T14:17:56;9.60;99.90
7399;DHT22;3740;50.700;7.184;2024-02-26T14:20:23;9.50;99.90
7399;DHT22;3740;50.700;7.184;2024-02-26T14:22:50;9.60;99.90
7399;DHT22;3740;50.700;7.184;2024-02-26T14:25:17;9.70;99.90
7399;DHT22;3740;50.700;7.184;2024-02-26T14:27:43;9.70;99.90
7399;DHT22;3740;50.700;7.184;2024-02-26T14:30:09;9.80;99.90
7399;DHT22;3740;50.700;7.184;2024-02-26T14:32:34;9.80;99.90
7399;DHT22;3740;50.700;7.184;2024-02-26T14:35:02;9.90;99.90
7399;DHT22;3740;50.700;7.184;2024-02-26T14:37:28;10.00;99.90
7399;DHT22;3740;50.700;7.184;2024-02-26T14:39:54;10.10;99.90
7399;DHT22;3740;50.700;7.184;2024-02-26T14:42:19;10.10;99.90
7399;DHT22;3740;50.700;7.184;2024-02-26T14:44:45;10.10;99.90
7399;DHT22;3740;50.700;7.184;2024-02-26T14:47:13;10.00;99.90
7399;DHT22;3740;50.700;7.184;2024-02-26T14:49:39;9.90;99.90
7399;DHT22;3740;50.700;7.184;2024-02-26T14:52:04;9.80;99.90
7399;DHT22;3740;50.700;7.184;2024-02-26T14:54:30;9.80;99.90
7399;DHT22;3740;50.700;7.184;2024-02-26T14:57:03;9.80;99.90
7399;DHT22;3740;50.700;7.184;2024-02-26T14:59:30;9.90;99.90
7399;DHT22;3740;50.700;7.184;2024-02-26T15:01:57;10.00;99.90
7399;DHT22;3740;50.700;7.184;2024-02-26T15:04:22;10.00;99.90
7399;DHT22;3740;50.700;7.184;2024-02-26T15:06:48;9.90;99.90
7399;DHT22;3740;50.700;7.184;2024-02-26T15:09:13;9.90;99.90
7399;DHT22;3740;50.700;7.184;2024-02-26T15:11:39;9.80;99.90
7399;DHT22;3740;50.700;7.184;2024-02-26T15:14:07;9.80;99.90
7399;DHT22;3740;50.700;7.184;2024-02-26T15:16:32;9.70;99.90
7399;DHT22;3740;50.700;7.184;2024-02-26T15:18:58;9.60;99.90
7399;DHT22;3740;50.700;7.184;2024-02-26T15:21:24;9.60;99.90
7399;DHT22;3740;50.700;7.184;2024-02-26T15:23:49;9.70;99.90
7399;DHT22;3740;50.700;7.184;2024-02-26T15:26:17;9.70;99.90
7399;DHT22;3740;50.700;7.184;2024-02-26T15:28:43;9.80;99.90
7399;DHT22;3740;50.700;7.184;2024-02-26T15:31:08;9.90;99.90
7399;DHT22;3740;50.700;7.184;2024-02-26T15:33:34;9.70;99.90
7399;DHT22;3740;50.700;7.184;2024-02-26T15:35:59;9.60;99.90
7399;DHT22;3740;50.700;7.184;2024-02-26T15:38:25;9.50;99.90
7399;DHT22;3740;50.700;7.184;2024-02-26T15:40:52;9.50;99.90
7399;DHT22;3740;50.700;7.184;2024-02-26T15:43:18;9.50;99.90
7399;DHT22;3740;50.700;7.184;2024-02-26T15:45:45;9.50;99.90
7399;DHT22;3740;50.700;7.184;2024-02-26T15:48:10;9.60;99.90
7399;DHT22;3740;50.700;7.184;2024-02-26T15:50:36;9.60;99.90
7399;DHT22;3740;50.700;7.184;2024-02-26T15:53:03;9.60;99.90
7399;DHT22;3740;50.700;7.184;2024-02-26T15:55:29;9.40;99.90
7399;DHT22;3740;50.700;7.184;2024-02-26T15:57:55;9.40;99.90
7399;DHT22;3740;50.700;7.184;2024-02-26T16:00:20;9.50;99.90
7399;DHT22;3740;50.700;7.184;2024-02-26T16:02:47;9.50;99.90
7399;DHT22;3740;50.700;7.184;2024-02-26T16:05:14;9.60;99.90
7399;DHT22;3740;50.700;7.184;2024-02-26T16:07:53;9.60;99.90
7399;DHT22;3740;50.700;7.184;2024-02-26T16:10:19;9.60;99.90
7399;DHT22;3740;50.700;7.184;2024-02-26T16:12:53;9.80;99.90
7399;DHT22;3740;50.700;7.184;2024-02-26T16:15:19;10.00;99.90
7399;DHT22;3740;50.700;7.184;2024-02-26T16:17:49;10.10;99.90